Aviation Digital Data Service (ADDS)

Output produced by METARs form (0541 UTC 19 March 2019)
found at http://www.aviationweather.gov/metar/data/
 
Forecast for: ETSH (HOLZDORF , DE)
Text: TAF ETSH 190516Z 1906/1915 26012KT 9999 NSW BKN045
Forecast period: 0600 to 1500 UTC 19 March 2019
Forecast type: FROM: standard forecast or significant change
Winds: from the W (260 degrees) at 14 MPH (12 knots; 6.2 m/s)
Visibility: 6 or more miles 10+ km)
Ceiling: 4500 feet AGL
Clouds: broken clouds at 4500 feet AGL
Weather: NSW  (no significant weather)